createdAt,value
2023-06-29T00:01:28.675Z,101673.22
2023-06-29T00:03:55.292Z,101679.31
2023-06-29T00:06:21.900Z,101673.84
2023-06-29T00:08:48.809Z,101667.19
2023-06-29T00:11:15.362Z,101668.41
2023-06-29T00:13:42.605Z,101675.75
2023-06-29T00:16:09.240Z,101675.75
2023-06-29T00:18:36.125Z,101678.94
2023-06-29T00:21:04.652Z,101677.44
2023-06-29T00:23:33.279Z,101669.63
2023-06-29T00:26:00.237Z,101674.75
2023-06-29T00:28:26.708Z,101679.88
2023-06-29T00:30:56.093Z,101672.78
2023-06-29T00:33:22.733Z,101672.03
2023-06-29T00:35:49.585Z,101669.06
2023-06-29T00:38:16.246Z,101661.25
2023-06-29T00:40:42.802Z,101666.91
2023-06-29T00:43:09.447Z,101660.50
2023-06-29T00:45:36.974Z,101656.81
2023-06-29T00:48:05.414Z,101651.88
2023-06-29T00:50:34.360Z,101648.72
2023-06-29T00:53:00.936Z,101654.09
2023-06-29T00:55:28.274Z,101652.91
2023-06-29T00:57:54.849Z,101641.84
2023-06-29T01:00:21.444Z,101632.25
2023-06-29T01:02:50.028Z,101621.47
2023-06-29T01:05:17.424Z,101626.88
2023-06-29T01:08:00.330Z,101633.75
2023-06-29T01:10:30.485Z,101622.47
2023-06-29T01:13:00.424Z,101624.44
2023-06-29T01:15:27.506Z,101630.31
2023-06-29T01:17:56.665Z,101628.09
2023-06-29T01:20:27.043Z,101624.66
2023-06-29T01:23:00.662Z,101617.56
2023-06-29T01:25:31.008Z,101626.41
2023-06-29T01:27:57.593Z,101627.59
2023-06-29T01:30:24.542Z,101633.47
2023-06-29T01:32:51.163Z,101631.25
2023-06-29T01:35:17.758Z,101629.78
2023-06-29T01:37:57.755Z,101628.56
2023-06-29T01:40:28.924Z,101621.22
2023-06-29T01:42:58.069Z,101622.91
2023-06-29T01:45:26.007Z,101619.97
2023-06-29T01:47:56.797Z,101621.66
2023-06-29T01:50:24.092Z,101616.25
2023-06-29T01:52:50.799Z,101612.06
2023-06-29T01:55:17.418Z,101613.28
2023-06-29T01:57:44.143Z,101612.81
2023-06-29T02:00:11.357Z,101613.28
2023-06-29T02:02:40.818Z,101609.09
2023-06-29T02:05:08.621Z,101606.41
2023-06-29T02:07:35.218Z,101600.28
2023-06-29T02:10:01.825Z,101604.19
2023-06-29T02:12:28.467Z,101598.06
2023-06-29T02:14:54.996Z,101596.09
2023-06-29T02:17:21.618Z,101599.28
2023-06-29T02:19:48.235Z,101593.88
2023-06-29T02:22:14.860Z,101592.66
2023-06-29T02:24:41.537Z,101588.47
2023-06-29T02:27:08.037Z,101594.13
2023-06-29T02:29:35.024Z,101590.22
2023-06-29T02:32:01.573Z,101580.94
2023-06-29T02:34:28.172Z,101582.88
2023-06-29T02:36:55.282Z,101574.53
2023-06-29T02:39:24.876Z,101579.66
2023-06-29T02:41:51.617Z,101576.97
2023-06-29T02:44:18.290Z,101571.56
2023-06-29T02:46:45.357Z,101568.13
2023-06-29T02:49:13.064Z,101564.41
2023-06-29T02:51:39.859Z,101574.19
2023-06-29T02:54:08.972Z,101567.31
2023-06-29T02:56:35.528Z,101563.88
2023-06-29T02:59:04.170Z,101565.84
2023-06-29T03:01:31.183Z,101557.75
2023-06-29T03:03:58.264Z,101563.88
2023-06-29T03:06:26.602Z,101560.44
2023-06-29T03:08:53.234Z,101565.09
2023-06-29T03:11:19.787Z,101558.19
2023-06-29T03:13:47.620Z,101563.78
2023-06-29T03:16:14.241Z,101560.38
2023-06-29T03:18:40.812Z,101558.13
2023-06-29T03:21:16.173Z,101552.47
2023-06-29T03:23:44.224Z,101559.56
2023-06-29T03:26:10.742Z,101560.78
2023-06-29T03:28:37.362Z,101556.13
2023-06-29T03:31:04.045Z,101547.78
2023-06-29T03:33:30.732Z,101548.50
2023-06-29T03:35:57.253Z,101540.41
2023-06-29T03:38:23.893Z,101547.28
2023-06-29T03:40:50.441Z,101538.94
2023-06-29T03:43:17.021Z,101542.84
2023-06-29T03:45:43.904Z,101544.81
2023-06-29T03:48:10.728Z,101543.31
2023-06-29T03:50:37.330Z,101541.38
2023-06-29T03:53:04.034Z,101539.16
2023-06-29T03:55:31.046Z,101536.91
2023-06-29T03:57:58.879Z,101533.50
2023-06-29T04:00:25.946Z,101531.06
2023-06-29T04:02:52.670Z,101525.94
2023-06-29T04:05:19.608Z,101532.06
2023-06-29T04:07:46.167Z,101531.31
2023-06-29T04:10:12.775Z,101529.56
2023-06-29T04:12:39.767Z,101532.28
2023-06-29T04:15:06.901Z,101526.88
2023-06-29T04:17:33.446Z,101529.56
2023-06-29T04:19:59.955Z,101520.00
2023-06-29T04:22:26.516Z,101518.06
2023-06-29T04:24:53.126Z,101513.66
2023-06-29T04:27:19.799Z,101515.16
2023-06-29T04:29:46.376Z,101515.16
2023-06-29T04:32:13.099Z,101515.88
2023-06-29T04:34:39.706Z,101516.63
2023-06-29T04:37:07.591Z,101509.56
2023-06-29T04:39:34.268Z,101510.09
2023-06-29T04:42:04.167Z,101506.91
2023-06-29T04:44:33.785Z,101508.13
2023-06-29T04:47:01.225Z,101506.91
2023-06-29T04:49:33.033Z,101499.09
2023-06-29T04:52:00.927Z,101497.88
2023-06-29T04:54:28.585Z,101495.75
2023-06-29T04:56:57.417Z,101504.09
2023-06-29T04:59:25.423Z,101499.69
2023-06-29T05:01:52.115Z,101506.56
2023-06-29T05:04:18.854Z,101509.53
2023-06-29T05:06:45.597Z,101510.06
2023-06-29T05:09:12.299Z,101507.91
2023-06-29T05:11:38.867Z,101500.56
2023-06-29T05:14:05.400Z,101500.09
2023-06-29T05:16:31.970Z,101498.66
2023-06-29T05:18:58.545Z,101505.78
2023-06-29T05:21:27.254Z,101500.13
2023-06-29T05:23:53.899Z,101500.41
2023-06-29T05:26:20.436Z,101497.97
2023-06-29T05:28:56.271Z,101495.03
2023-06-29T05:31:31.794Z,101486.22
2023-06-29T05:33:58.457Z,101489.66
2023-06-29T05:36:24.999Z,101485.25
2023-06-29T05:38:51.500Z,101487.25
2023-06-29T05:41:17.987Z,101480.91
2023-06-29T05:43:44.839Z,101479.69
2023-06-29T05:46:11.792Z,101475.06
2023-06-29T05:48:38.395Z,101474.84
2023-06-29T05:51:05.090Z,101478.50
2023-06-29T05:53:32.582Z,101475.84
2023-06-29T05:55:59.280Z,101479.28
2023-06-29T05:58:25.781Z,101482.00
2023-06-29T06:00:52.964Z,101482.00
2023-06-29T06:03:21.505Z,101487.66
2023-06-29T06:05:48.139Z,101480.03
2023-06-29T06:08:15.837Z,101483.47
2023-06-29T06:10:43.117Z,101490.34
2023-06-29T06:13:10.391Z,101492.09
2023-06-29T06:15:37.047Z,101488.91
2023-06-29T06:18:03.721Z,101490.38
2023-06-29T06:20:30.454Z,101490.16
2023-06-29T06:22:57.085Z,101494.09
2023-06-29T06:25:23.594Z,101491.63
2023-06-29T06:27:50.217Z,101486.25
2023-06-29T06:30:16.746Z,101480.84
2023-06-29T06:32:43.373Z,101484.06
2023-06-29T06:35:10.229Z,101490.22
2023-06-29T06:37:37.586Z,101486.84
2023-06-29T06:40:08.996Z,101481.97
2023-06-29T06:42:36.261Z,101484.69
2023-06-29T06:45:06.548Z,101474.66
2023-06-29T06:47:37.248Z,101481.56
2023-06-29T06:50:05.334Z,101475.19
2023-06-29T06:52:32.079Z,101477.41
2023-06-29T06:54:58.615Z,101488.72
2023-06-29T06:57:25.214Z,101476.91
2023-06-29T06:59:51.845Z,101489.44
2023-06-29T07:02:18.537Z,101483.06
2023-06-29T07:04:45.244Z,101479.38
2023-06-29T07:07:11.807Z,101481.81
2023-06-29T07:09:38.738Z,101487.22
2023-06-29T07:12:05.788Z,101479.09
2023-06-29T07:14:32.971Z,101486.00
2023-06-29T07:16:59.731Z,101485.03
2023-06-29T07:24:25.361Z,101474.97
2023-06-29T07:26:51.949Z,101474.97
2023-06-29T07:29:18.526Z,101477.44
2023-06-29T07:31:45.225Z,101481.13
2023-06-29T07:34:11.795Z,101481.16
2023-06-29T07:36:40.402Z,101480.94
2023-06-29T07:39:07.064Z,101484.88
2023-06-29T07:41:33.769Z,101487.34
2023-06-29T07:44:01.100Z,101483.16
2023-06-29T07:46:28.173Z,101477.28
2023-06-29T07:48:56.001Z,101470.41
2023-06-29T07:51:23.024Z,101480.25
2023-06-29T07:53:51.434Z,101483.72
2023-06-29T07:56:18.700Z,101481.72
2023-06-29T07:58:45.871Z,101485.41
2023-06-29T08:01:13.157Z,101471.34
2023-06-29T08:03:55.844Z,101482.91
2023-06-29T08:08:57.349Z,101473.66
2023-06-29T08:11:24.287Z,101469.41
2023-06-29T08:13:50.851Z,101468.81
2023-06-29T08:16:17.770Z,101473.25
2023-06-29T08:18:44.571Z,101462.13
2023-06-29T08:21:11.954Z,101463.41
2023-06-29T08:23:38.641Z,101462.78
2023-06-29T08:26:05.630Z,101459.88
2023-06-29T08:28:32.286Z,101464.69
2023-06-29T08:30:58.793Z,101465.56
2023-06-29T08:33:25.856Z,101457.84
2023-06-29T08:35:52.784Z,101460.84
2023-06-29T08:38:19.783Z,101468.41
2023-06-29T08:40:50.416Z,101468.16
2023-06-29T08:43:18.758Z,101473.31
2023-06-29T08:45:46.928Z,101468.16
2023-06-29T08:48:15.165Z,101465.22
2023-06-29T08:51:02.065Z,101477.00
2023-06-29T08:53:29.121Z,101466.09
2023-06-29T08:55:57.496Z,101467.53
2023-06-29T08:58:24.825Z,101464.72
2023-06-29T09:00:53.767Z,101461.38
2023-06-29T09:03:22.780Z,101465.38
2023-06-29T09:05:49.447Z,101464.38
2023-06-29T09:08:16.028Z,101461.44
2023-06-29T09:10:42.846Z,101455.06
2023-06-29T09:13:10.586Z,101457.50
2023-06-29T09:15:39.561Z,101455.19
2023-06-29T09:18:06.913Z,101449.34
2023-06-29T09:20:37.095Z,101452.09
2023-06-29T09:23:07.232Z,101457.19
2023-06-29T09:25:35.550Z,101450.69
2023-06-29T09:28:06.879Z,101451.56
2023-06-29T09:30:40.333Z,101452.59
2023-06-29T09:33:12.375Z,101451.47
2023-06-29T09:35:46.023Z,101448.44
2023-06-29T09:38:13.786Z,101447.31
2023-06-29T09:40:54.089Z,101444.09
2023-06-29T09:43:29.179Z,101449.19
2023-06-29T09:46:13.770Z,101446.13
2023-06-29T09:51:21.958Z,101446.13
2023-06-29T09:53:48.799Z,101446.13
2023-06-29T09:56:17.341Z,101449.66
2023-06-29T09:58:44.275Z,101447.69
2023-06-29T10:01:10.978Z,101443.22
2023-06-29T10:03:37.673Z,101445.00
2023-06-29T10:06:14.756Z,101451.63
2023-06-29T10:08:43.287Z,101445.13
2023-06-29T10:11:09.907Z,101449.31
2023-06-29T10:13:50.623Z,101447.00
2023-06-29T10:16:22.223Z,101443.47
2023-06-29T10:18:51.971Z,101444.59
2023-06-29T10:21:18.709Z,101446.91
2023-06-29T10:23:46.629Z,101440.94
2023-06-29T10:26:13.804Z,101442.41
2023-06-29T10:28:40.981Z,101435.47
2023-06-29T10:31:07.641Z,101437.38
2023-06-29T10:33:46.841Z,101441.91
2023-06-29T10:36:15.006Z,101438.69
2023-06-29T10:38:41.871Z,101427.56
2023-06-29T10:41:08.571Z,101441.91
2023-06-29T10:43:57.371Z,101435.50
2023-06-29T10:46:45.872Z,101437.25
2023-06-29T10:49:26.561Z,101432.44
2023-06-29T10:52:16.805Z,101436.66
2023-06-29T10:54:43.354Z,101429.63
2023-06-29T10:57:11.472Z,101428.44
2023-06-29T10:59:39.769Z,101425.09
2023-06-29T11:02:08.934Z,101417.97
2023-06-29T11:04:35.672Z,101408.69
2023-06-29T11:07:08.093Z,101412.69
2023-06-29T11:09:35.490Z,101412.44
2023-06-29T11:12:02.061Z,101414.63
2023-06-29T11:14:29.749Z,101410.88
2023-06-29T11:16:56.669Z,101417.03
2023-06-29T11:19:28.600Z,101410.66
2023-06-29T11:21:55.754Z,101416.44
2023-06-29T11:24:23.111Z,101420.66
2023-06-29T11:26:49.805Z,101414.44
2023-06-29T11:29:16.458Z,101419.03
2023-06-29T11:31:43.003Z,101405.00
2023-06-29T11:34:13.822Z,101412.00
2023-06-29T11:36:40.472Z,101412.66
2023-06-29T11:39:11.690Z,101414.31
2023-06-29T11:41:38.651Z,101409.91
2023-06-29T11:44:05.528Z,101416.31
2023-06-29T11:46:34.475Z,101418.72
2023-06-29T11:49:04.411Z,101415.06
2023-06-29T11:51:39.857Z,101403.75
2023-06-29T11:54:08.444Z,101416.66
2023-06-29T11:56:37.189Z,101406.38
2023-06-29T11:59:11.276Z,101409.00
2023-06-29T12:01:39.699Z,101405.75
2023-06-29T12:04:16.000Z,101402.63
2023-06-29T12:06:57.582Z,101397.72
2023-06-29T12:09:31.661Z,101404.94
2023-06-29T12:12:03.431Z,101402.75
2023-06-29T12:14:33.798Z,101392.28
2023-06-29T12:19:35.585Z,101397.19
2023-06-29T12:22:02.955Z,101398.25
2023-06-29T12:24:30.133Z,101392.38
2023-06-29T12:26:57.694Z,101391.53
2023-06-29T12:29:24.269Z,101393.91
2023-06-29T12:31:50.883Z,101388.28
2023-06-29T12:34:17.495Z,101391.06
2023-06-29T12:36:44.087Z,101388.63
2023-06-29T12:39:10.580Z,101383.63
2023-06-29T12:41:37.178Z,101380.06
2023-06-29T12:44:03.866Z,101381.56
2023-06-29T12:46:32.640Z,101376.44
2023-06-29T12:49:00.858Z,101382.06
2023-06-29T12:51:29.360Z,101382.72
2023-06-29T12:53:56.789Z,101389.91
2023-06-29T12:56:23.327Z,101383.47
2023-06-29T12:58:49.895Z,101385.22
2023-06-29T13:01:16.461Z,101396.03
2023-06-29T13:03:43.127Z,101395.91
2023-06-29T13:06:09.753Z,101406.81
2023-06-29T13:08:36.320Z,101415.63
2023-06-29T13:11:03.323Z,101411.53
2023-06-29T13:13:31.222Z,101416.13
2023-06-29T13:15:57.774Z,101412.25
2023-06-29T13:18:25.757Z,101410.19
2023-06-29T13:20:52.531Z,101415.88
2023-06-29T13:23:19.116Z,101407.44
2023-06-29T13:25:45.767Z,101404.38
2023-06-29T13:28:13.059Z,101402.09
2023-06-29T13:30:40.971Z,101403.84
2023-06-29T13:33:08.339Z,101394.81
2023-06-29T13:35:34.921Z,101401.44
2023-06-29T13:38:01.533Z,101393.06
2023-06-29T13:40:29.360Z,101398.44
2023-06-29T13:42:56.198Z,101392.13
2023-06-29T13:45:22.852Z,101389.56
2023-06-29T13:47:58.335Z,101386.81
2023-06-29T13:50:28.590Z,101393.72
2023-06-29T13:53:02.704Z,101394.53
2023-06-29T13:55:29.577Z,101386.63
2023-06-29T13:57:56.095Z,101378.94
2023-06-29T14:00:22.832Z,101385.91
2023-06-29T14:02:51.192Z,101397.31
2023-06-29T14:05:18.549Z,101380.13
2023-06-29T14:07:45.049Z,101378.91
2023-06-29T14:10:11.642Z,101371.88
2023-06-29T14:12:38.140Z,101373.13
2023-06-29T14:15:05.156Z,101373.00
2023-06-29T14:17:31.701Z,101378.44
2023-06-29T14:19:58.262Z,101372.19
2023-06-29T14:22:24.769Z,101381.84
2023-06-29T14:24:51.806Z,101379.59
2023-06-29T14:27:19.944Z,101381.78
2023-06-29T14:29:46.533Z,101384.81
2023-06-29T14:32:14.690Z,101386.09
2023-06-29T14:34:41.380Z,101378.22
2023-06-29T14:37:08.320Z,101380.00
2023-06-29T14:39:34.826Z,101376.44
2023-06-29T14:42:02.820Z,101377.72
2023-06-29T14:44:29.364Z,101381.47
2023-06-29T14:46:57.131Z,101381.97
2023-06-29T14:49:23.711Z,101385.84
2023-06-29T14:51:50.265Z,101388.03
2023-06-29T14:54:20.493Z,101392.88
2023-06-29T14:56:47.002Z,101385.41
2023-06-29T14:59:13.714Z,101384.47
2023-06-29T15:01:40.408Z,101380.78
2023-06-29T15:04:07.373Z,101386.59
2023-06-29T15:06:34.026Z,101388.88
2023-06-29T15:09:00.559Z,101394.88
2023-06-29T15:11:27.276Z,101383.06
2023-06-29T15:13:54.930Z,101380.78
2023-06-29T15:16:21.532Z,101399.44
2023-06-29T15:18:59.179Z,101390.03
2023-06-29T15:21:27.076Z,101389.38
2023-06-29T15:23:53.797Z,101392.41
2023-06-29T15:26:20.350Z,101384.91
2023-06-29T15:28:46.918Z,101388.06
2023-06-29T15:31:13.484Z,101394.22
2023-06-29T15:33:40.038Z,101396.50
2023-06-29T15:36:06.538Z,101385.78
2023-06-29T15:38:34.721Z,101385.25
2023-06-29T15:41:02.134Z,101393.28
2023-06-29T15:43:28.774Z,101393.22
2023-06-29T15:45:55.337Z,101389.03
2023-06-29T15:48:21.947Z,101391.06
2023-06-29T15:50:48.723Z,101387.34
2023-06-29T15:53:15.391Z,101391.56
2023-06-29T15:55:41.948Z,101388.44
2023-06-29T15:58:08.487Z,101390.41
2023-06-29T16:00:35.045Z,101389.00
2023-06-29T16:03:01.747Z,101394.94
2023-06-29T16:05:28.684Z,101391.22
2023-06-29T16:07:55.182Z,101380.66
2023-06-29T16:10:21.823Z,101391.50
2023-06-29T16:12:48.392Z,101384.81
2023-06-29T16:15:15.029Z,101383.22
2023-06-29T16:17:41.716Z,101380.28
2023-06-29T16:20:09.401Z,101383.28
2023-06-29T16:22:38.100Z,101397.03
2023-06-29T16:25:08.407Z,101398.56
2023-06-29T16:27:34.945Z,101390.09
2023-06-29T16:30:01.607Z,101398.03
2023-06-29T16:32:28.288Z,101402.09
2023-06-29T16:34:54.928Z,101403.41
2023-06-29T16:37:21.508Z,101398.31
2023-06-29T16:39:48.046Z,101413.69
2023-06-29T16:42:15.476Z,101406.84
2023-06-29T16:44:42.077Z,101417.69
2023-06-29T16:47:08.600Z,101417.47
2023-06-29T16:49:35.234Z,101438.91
2023-06-29T16:52:01.844Z,101438.47
2023-06-29T16:54:28.470Z,101449.03
2023-06-29T16:56:55.048Z,101449.00
2023-06-29T16:59:21.598Z,101455.34
2023-06-29T17:01:48.346Z,101438.38
2023-06-29T17:04:15.243Z,101449.69
2023-06-29T17:06:41.835Z,101454.34
2023-06-29T17:09:08.330Z,101456.06
2023-06-29T17:11:34.853Z,101462.66
2023-06-29T17:14:01.630Z,101453.03
2023-06-29T17:16:28.310Z,101462.81
2023-06-29T17:18:54.955Z,101453.25
2023-06-29T17:21:22.057Z,101460.09
2023-06-29T17:23:53.447Z,101458.13
2023-06-29T17:26:20.243Z,101464.75
2023-06-29T17:28:46.789Z,101466.47
2023-06-29T17:31:13.401Z,101467.44
2023-06-29T17:33:49.884Z,101471.34
2023-06-29T17:36:21.933Z,101462.38
2023-06-29T17:38:48.598Z,101459.38
2023-06-29T17:41:15.319Z,101467.44
2023-06-29T17:43:41.896Z,101467.88
2023-06-29T17:46:08.431Z,101471.47
2023-06-29T17:48:35.050Z,101474.47
2023-06-29T17:51:13.226Z,101473.81
2023-06-29T17:53:39.821Z,101479.84
2023-06-29T17:56:06.361Z,101470.25
2023-06-29T17:58:32.914Z,101466.28
2023-06-29T18:00:59.516Z,101473.09
2023-06-29T18:03:26.094Z,101476.94
2023-06-29T18:05:55.237Z,101479.38
2023-06-29T18:08:22.403Z,101488.59
2023-06-29T18:10:49.135Z,101479.88
2023-06-29T18:13:15.689Z,101483.91
2023-06-29T18:15:42.352Z,101483.38
2023-06-29T18:18:08.942Z,101481.34
2023-06-29T18:20:35.450Z,101488.69
2023-06-29T18:23:02.022Z,101489.91
2023-06-29T18:25:28.700Z,101482.22
2023-06-29T18:27:55.245Z,101482.41
2023-06-29T18:30:21.868Z,101488.97
2023-06-29T18:32:48.549Z,101493.09
2023-06-29T18:35:15.131Z,101493.78
2023-06-29T18:37:46.101Z,101504.72
2023-06-29T18:40:14.353Z,101507.63
2023-06-29T18:42:41.586Z,101509.03
2023-06-29T18:45:10.481Z,101484.25
2023-06-29T18:47:37.073Z,101499.94
2023-06-29T18:50:04.814Z,101502.91
2023-06-29T18:52:31.320Z,101500.47
2023-06-29T18:54:57.982Z,101508.75
2023-06-29T18:57:24.623Z,101511.34
2023-06-29T18:59:51.144Z,101505.69
2023-06-29T19:02:17.853Z,101502.94
2023-06-29T19:04:44.766Z,101497.81
2023-06-29T19:07:12.536Z,101496.34
2023-06-29T19:09:39.240Z,101491.41
2023-06-29T19:12:06.024Z,101489.47
2023-06-29T19:14:32.564Z,101482.88
2023-06-29T19:16:59.410Z,101478.03
2023-06-29T19:19:26.676Z,101488.06
2023-06-29T19:21:53.675Z,101490.28
2023-06-29T19:24:20.740Z,101498.38
2023-06-29T19:26:47.578Z,101506.16
2023-06-29T19:29:14.780Z,101515.16
2023-06-29T19:31:44.514Z,101524.38
2023-06-29T19:34:12.099Z,101522.63
2023-06-29T19:36:39.008Z,101527.50
2023-06-29T19:39:05.616Z,101532.38
2023-06-29T19:41:32.211Z,101540.16
2023-06-29T19:43:58.807Z,101538.50
2023-06-29T19:46:25.405Z,101537.00
2023-06-29T19:48:52.066Z,101545.81
2023-06-29T19:51:18.730Z,101542.13
2023-06-29T19:53:45.437Z,101552.03
2023-06-29T19:56:12.132Z,101552.31
2023-06-29T19:58:38.866Z,101549.16
2023-06-29T20:01:05.517Z,101555.00
2023-06-29T20:03:32.406Z,101552.50
2023-06-29T20:05:59.089Z,101551.75
2023-06-29T20:08:25.855Z,101546.38
2023-06-29T20:10:53.132Z,101554.72
2023-06-29T20:13:20.911Z,101556.22
2023-06-29T20:15:47.888Z,101552.50
2023-06-29T20:18:14.836Z,101558.34
2023-06-29T20:20:41.462Z,101560.28
2023-06-29T20:23:08.260Z,101566.88
2023-06-29T20:25:34.879Z,101564.66
2023-06-29T20:28:01.512Z,101565.84
2023-06-29T20:30:28.145Z,101557.78
2023-06-29T20:32:54.913Z,101547.50
2023-06-29T20:35:21.593Z,101553.63
2023-06-29T20:37:48.032Z,101547.69
2023-06-29T20:40:14.892Z,101554.72
2023-06-29T20:42:41.444Z,101547.56
2023-06-29T20:45:09.862Z,101552.22
2023-06-29T20:47:36.504Z,101553.88
2023-06-29T20:50:03.181Z,101558.50
2023-06-29T20:52:29.794Z,101558.50
2023-06-29T20:54:56.367Z,101546.56
2023-06-29T20:57:23.487Z,101543.31
2023-06-29T20:59:50.211Z,101538.38
2023-06-29T21:02:18.733Z,101552.28
2023-06-29T21:04:45.870Z,101545.47
2023-06-29T21:07:12.756Z,101548.16
2023-06-29T21:09:39.562Z,101547.41
2023-06-29T21:12:06.751Z,101548.63
2023-06-29T21:14:33.548Z,101555.94
2023-06-29T21:17:00.209Z,101550.09
2023-06-29T21:19:27.062Z,101550.56
2023-06-29T21:21:53.775Z,101546.66
2023-06-29T21:24:20.492Z,101560.13
2023-06-29T21:26:47.135Z,101549.25
2023-06-29T21:29:33.272Z,101549.25
2023-06-29T21:32:04.148Z,101549.06
2023-06-29T21:34:31.442Z,101546.84
2023-06-29T21:36:58.608Z,101543.88
2023-06-29T21:39:25.261Z,101544.06
2023-06-29T21:41:51.912Z,101545.81
2023-06-29T21:44:18.512Z,101552.59
2023-06-29T21:46:45.226Z,101545.88
2023-06-29T21:49:11.972Z,101550.22
2023-06-29T21:51:38.957Z,101555.50
2023-06-29T21:54:06.004Z,101561.97
2023-06-29T21:56:32.585Z,101565.09
2023-06-29T21:58:59.155Z,101563.06
2023-06-29T22:01:25.697Z,101564.47
2023-06-29T22:03:52.319Z,101562.69
2023-06-29T22:06:19.445Z,101569.44
2023-06-29T22:08:46.101Z,101567.66
2023-06-29T22:11:12.592Z,101567.09
2023-06-29T22:13:39.167Z,101561.88
2023-06-29T22:16:05.740Z,101565.50
2023-06-29T22:18:32.298Z,101565.38
2023-06-29T22:20:59.102Z,101560.34
2023-06-29T22:23:25.666Z,101560.50
2023-06-29T22:25:52.245Z,101564.59
2023-06-29T22:28:19.078Z,101561.78
2023-06-29T22:30:45.720Z,101562.13
2023-06-29T22:33:12.621Z,101557.78
2023-06-29T22:35:39.343Z,101564.97
2023-06-29T22:38:09.472Z,101553.66
2023-06-29T22:40:39.088Z,101549.81
2023-06-29T22:43:05.609Z,101543.41
2023-06-29T22:45:32.315Z,101541.16
2023-06-29T22:47:59.443Z,101536.25
2023-06-29T22:50:26.131Z,101538.69
2023-06-29T22:52:53.322Z,101542.69
2023-06-29T22:55:20.110Z,101541.81
2023-06-29T22:57:46.716Z,101534.84
2023-06-29T23:00:13.767Z,101533.34
2023-06-29T23:02:40.477Z,101538.88
2023-06-29T23:05:07.706Z,101545.59
2023-06-29T23:07:34.533Z,101548.31
2023-06-29T23:10:01.188Z,101554.31
2023-06-29T23:12:27.708Z,101543.72
2023-06-29T23:14:55.887Z,101547.03
2023-06-29T23:17:26.694Z,101544.50
2023-06-29T23:19:53.430Z,101551.94
2023-06-29T23:22:19.971Z,101539.88
2023-06-29T23:24:46.824Z,101546.31
2023-06-29T23:27:13.830Z,101537.22
2023-06-29T23:29:40.415Z,101554.06
2023-06-29T23:32:08.066Z,101559.75
2023-06-29T23:34:34.702Z,101563.63
2023-06-29T23:37:01.614Z,101560.63
2023-06-29T23:39:28.259Z,101559.00
2023-06-29T23:41:54.822Z,101559.28
2023-06-29T23:44:21.428Z,101557.94
2023-06-29T23:46:52.585Z,101551.25
2023-06-29T23:49:21.574Z,101559.13
2023-06-29T23:51:48.725Z,101547.50
2023-06-29T23:54:16.452Z,101546.63
2023-06-29T23:56:47.412Z,101543.34
2023-06-29T23:59:13.968Z,101547.34
